sensor_id;sensor_type;location;lat;lon;timestamp;P1;durP1;ratioP1;P2;durP2;ratioP2
55007;SDS011;40902;45.116;21.296;2024-03-02T00:02:18;13.52;;;10.10;;
55007;SDS011;40902;45.116;21.296;2024-03-02T00:04:44;15.48;;;10.60;;
55007;SDS011;40902;45.116;21.296;2024-03-02T00:07:13;12.18;;;9.60;;
55007;SDS011;40902;45.116;21.296;2024-03-02T00:09:40;12.93;;;9.45;;
55007;SDS011;40902;45.116;21.296;2024-03-02T00:12:10;11.07;;;8.43;;
55007;SDS011;40902;45.116;21.296;2024-03-02T00:14:40;12.13;;;8.73;;
55007;SDS011;40902;45.116;21.296;2024-03-02T00:17:06;13.85;;;8.95;;
55007;SDS011;40902;45.116;21.296;2024-03-02T00:19:40;12.07;;;8.63;;
55007;SDS011;40902;45.116;21.296;2024-03-02T00:22:05;11.23;;;8.15;;
55007;SDS011;40902;45.116;21.296;2024-03-02T00:24:33;12.75;;;8.02;;
55007;SDS011;40902;45.116;21.296;2024-03-02T00:27:03;11.45;;;8.48;;
55007;SDS011;40902;45.116;21.296;2024-03-02T00:29:30;11.75;;;8.00;;
55007;SDS011;40902;45.116;21.296;2024-03-02T00:31:59;11.52;;;7.93;;
55007;SDS011;40902;45.116;21.296;2024-03-02T00:34:26;11.55;;;8.75;;
55007;SDS011;40902;45.116;21.296;2024-03-02T00:36:52;11.15;;;8.80;;
55007;SDS011;40902;45.116;21.296;2024-03-02T00:39:18;10.00;;;8.32;;
55007;SDS011;40902;45.116;21.296;2024-03-02T00:41:44;12.35;;;8.63;;
55007;SDS011;40902;45.116;21.296;2024-03-02T00:44:14;10.82;;;8.52;;
55007;SDS011;40902;45.116;21.296;2024-03-02T00:46:46;12.68;;;8.40;;
55007;SDS011;40902;45.116;21.296;2024-03-02T00:49:17;11.85;;;8.50;;
55007;SDS011;40902;45.116;21.296;2024-03-02T00:51:47;11.32;;;8.63;;
55007;SDS011;40902;45.116;21.296;2024-03-02T00:54:20;13.10;;;8.73;;
55007;SDS011;40902;45.116;21.296;2024-03-02T00:56:50;11.48;;;8.93;;
55007;SDS011;40902;45.116;21.296;2024-03-02T00:59:20;12.73;;;9.75;;
55007;SDS011;40902;45.116;21.296;2024-03-02T01:01:50;14.90;;;9.55;;
55007;SDS011;40902;45.116;21.296;2024-03-02T01:04:17;14.70;;;10.40;;
55007;SDS011;40902;45.116;21.296;2024-03-02T01:06:42;13.02;;;9.73;;
55007;SDS011;40902;45.116;21.296;2024-03-02T01:09:08;11.60;;;9.40;;
55007;SDS011;40902;45.116;21.296;2024-03-02T01:11:34;13.50;;;10.73;;
55007;SDS011;40902;45.116;21.296;2024-03-02T01:14:00;14.38;;;10.18;;
55007;SDS011;40902;45.116;21.296;2024-03-02T01:16:26;13.55;;;9.32;;
55007;SDS011;40902;45.116;21.296;2024-03-02T01:18:55;13.80;;;9.45;;
55007;SDS011;40902;45.116;21.296;2024-03-02T01:21:20;13.23;;;9.73;;
55007;SDS011;40902;45.116;21.296;2024-03-02T01:23:46;12.38;;;9.45;;
55007;SDS011;40902;45.116;21.296;2024-03-02T01:26:12;16.75;;;10.00;;
55007;SDS011;40902;45.116;21.296;2024-03-02T01:28:38;11.77;;;8.57;;
55007;SDS011;40902;45.116;21.296;2024-03-02T01:31:05;12.35;;;9.55;;
55007;SDS011;40902;45.116;21.296;2024-03-02T01:33:31;12.23;;;9.15;;
55007;SDS011;40902;45.116;21.296;2024-03-02T01:35:56;12.48;;;9.88;;
55007;SDS011;40902;45.116;21.296;2024-03-02T01:38:23;12.60;;;9.40;;
55007;SDS011;40902;45.116;21.296;2024-03-02T01:40:49;14.68;;;9.88;;
55007;SDS011;40902;45.116;21.296;2024-03-02T01:43:16;12.82;;;9.07;;
55007;SDS011;40902;45.116;21.296;2024-03-02T01:45:42;16.52;;;9.43;;
55007;SDS011;40902;45.116;21.296;2024-03-02T01:48:09;12.10;;;8.93;;
55007;SDS011;40902;45.116;21.296;2024-03-02T01:50:37;12.27;;;8.88;;
55007;SDS011;40902;45.116;21.296;2024-03-02T01:53:04;12.75;;;8.68;;
55007;SDS011;40902;45.116;21.296;2024-03-02T01:55:30;11.98;;;8.90;;
55007;SDS011;40902;45.116;21.296;2024-03-02T01:57:56;12.98;;;9.38;;
55007;SDS011;40902;45.116;21.296;2024-03-02T02:00:22;12.93;;;9.57;;
55007;SDS011;40902;45.116;21.296;2024-03-02T02:02:51;11.25;;;8.07;;
55007;SDS011;40902;45.116;21.296;2024-03-02T02:05:19;13.77;;;9.10;;
55007;SDS011;40902;45.116;21.296;2024-03-02T02:07:45;12.25;;;9.15;;
55007;SDS011;40902;45.116;21.296;2024-03-02T02:10:11;11.50;;;8.15;;
55007;SDS011;40902;45.116;21.296;2024-03-02T02:12:38;11.75;;;8.13;;
55007;SDS011;40902;45.116;21.296;2024-03-02T02:15:21;13.98;;;9.00;;
55007;SDS011;40902;45.116;21.296;2024-03-02T02:17:55;11.95;;;8.38;;
55007;SDS011;40902;45.116;21.296;2024-03-02T02:20:24;13.15;;;8.88;;
55007;SDS011;40902;45.116;21.296;2024-03-02T02:23:04;14.45;;;8.07;;
55007;SDS011;40902;45.116;21.296;2024-03-02T02:25:34;15.43;;;8.45;;
55007;SDS011;40902;45.116;21.296;2024-03-02T02:28:23;11.23;;;7.93;;
55007;SDS011;40902;45.116;21.296;2024-03-02T02:30:51;11.43;;;7.50;;
55007;SDS011;40902;45.116;21.296;2024-03-02T02:33:17;11.65;;;7.35;;
55007;SDS011;40902;45.116;21.296;2024-03-02T02:35:44;10.00;;;7.30;;
55007;SDS011;40902;45.116;21.296;2024-03-02T02:38:11;9.65;;;6.72;;
55007;SDS011;40902;45.116;21.296;2024-03-02T02:40:38;11.30;;;7.10;;
55007;SDS011;40902;45.116;21.296;2024-03-02T02:43:04;8.45;;;6.85;;
55007;SDS011;40902;45.116;21.296;2024-03-02T02:45:29;10.38;;;6.43;;
55007;SDS011;40902;45.116;21.296;2024-03-02T02:47:58;9.38;;;6.53;;
55007;SDS011;40902;45.116;21.296;2024-03-02T02:50:24;9.38;;;6.57;;
55007;SDS011;40902;45.116;21.296;2024-03-02T02:52:50;10.25;;;5.78;;
55007;SDS011;40902;45.116;21.296;2024-03-02T02:55:15;9.70;;;6.32;;
55007;SDS011;40902;45.116;21.296;2024-03-02T02:57:42;10.13;;;6.47;;
55007;SDS011;40902;45.116;21.296;2024-03-02T03:00:11;9.80;;;6.47;;
55007;SDS011;40902;45.116;21.296;2024-03-02T03:02:42;10.40;;;6.70;;
55007;SDS011;40902;45.116;21.296;2024-03-02T03:05:10;11.38;;;6.50;;
55007;SDS011;40902;45.116;21.296;2024-03-02T03:07:37;10.63;;;6.45;;
55007;SDS011;40902;45.116;21.296;2024-03-02T03:10:05;10.52;;;6.30;;
55007;SDS011;40902;45.116;21.296;2024-03-02T03:12:32;11.50;;;6.88;;
55007;SDS011;40902;45.116;21.296;2024-03-02T03:14:58;11.18;;;6.82;;
55007;SDS011;40902;45.116;21.296;2024-03-02T03:17:24;11.68;;;7.20;;
55007;SDS011;40902;45.116;21.296;2024-03-02T03:19:50;10.63;;;7.30;;
55007;SDS011;40902;45.116;21.296;2024-03-02T03:22:16;12.70;;;7.95;;
55007;SDS011;40902;45.116;21.296;2024-03-02T03:25:12;12.98;;;7.50;;
55007;SDS011;40902;45.116;21.296;2024-03-02T03:27:38;11.98;;;7.20;;
55007;SDS011;40902;45.116;21.296;2024-03-02T03:30:06;12.07;;;7.50;;
55007;SDS011;40902;45.116;21.296;2024-03-02T03:32:37;9.23;;;6.80;;
55007;SDS011;40902;45.116;21.296;2024-03-02T03:35:03;10.63;;;6.93;;
55007;SDS011;40902;45.116;21.296;2024-03-02T03:37:42;12.75;;;6.90;;
55007;SDS011;40902;45.116;21.296;2024-03-02T03:40:10;11.20;;;7.45;;
55007;SDS011;40902;45.116;21.296;2024-03-02T03:42:43;10.43;;;6.65;;
55007;SDS011;40902;45.116;21.296;2024-03-02T03:45:16;12.13;;;7.00;;
55007;SDS011;40902;45.116;21.296;2024-03-02T03:47:42;11.50;;;6.50;;
55007;SDS011;40902;45.116;21.296;2024-03-02T03:50:08;12.68;;;6.78;;
55007;SDS011;40902;45.116;21.296;2024-03-02T03:52:39;12.88;;;7.25;;
55007;SDS011;40902;45.116;21.296;2024-03-02T03:55:07;15.40;;;7.15;;
55007;SDS011;40902;45.116;21.296;2024-03-02T03:57:36;10.57;;;6.63;;
55007;SDS011;40902;45.116;21.296;2024-03-02T04:00:03;11.65;;;6.68;;
55007;SDS011;40902;45.116;21.296;2024-03-02T04:02:31;11.40;;;6.15;;
55007;SDS011;40902;45.116;21.296;2024-03-02T04:05:00;12.18;;;6.70;;
55007;SDS011;40902;45.116;21.296;2024-03-02T04:07:35;15.32;;;5.68;;
55007;SDS011;40902;45.116;21.296;2024-03-02T04:10:13;11.55;;;5.93;;
55007;SDS011;40902;45.116;21.296;2024-03-02T04:12:45;10.18;;;6.03;;
55007;SDS011;40902;45.116;21.296;2024-03-02T04:15:22;10.10;;;6.28;;
55007;SDS011;40902;45.116;21.296;2024-03-02T04:17:53;10.95;;;6.00;;
55007;SDS011;40902;45.116;21.296;2024-03-02T04:20:20;10.45;;;5.97;;
55007;SDS011;40902;45.116;21.296;2024-03-02T04:22:45;9.25;;;5.68;;
55007;SDS011;40902;45.116;21.296;2024-03-02T04:25:11;10.82;;;5.65;;
55007;SDS011;40902;45.116;21.296;2024-03-02T04:27:37;8.75;;;5.78;;
55007;SDS011;40902;45.116;21.296;2024-03-02T04:30:03;9.88;;;5.78;;
55007;SDS011;40902;45.116;21.296;2024-03-02T04:32:38;8.27;;;5.35;;
55007;SDS011;40902;45.116;21.296;2024-03-02T04:35:22;10.25;;;5.20;;
55007;SDS011;40902;45.116;21.296;2024-03-02T04:37:54;8.10;;;4.90;;
55007;SDS011;40902;45.116;21.296;2024-03-02T04:40:19;9.00;;;5.70;;
55007;SDS011;40902;45.116;21.296;2024-03-02T04:42:47;8.57;;;5.47;;
55007;SDS011;40902;45.116;21.296;2024-03-02T04:45:31;7.22;;;5.05;;
55007;SDS011;40902;45.116;21.296;2024-03-02T04:48:11;10.50;;;5.00;;
55007;SDS011;40902;45.116;21.296;2024-03-02T04:50:47;10.98;;;5.25;;
55007;SDS011;40902;45.116;21.296;2024-03-02T04:53:18;7.85;;;4.47;;
55007;SDS011;40902;45.116;21.296;2024-03-02T04:55:58;8.35;;;4.90;;
55007;SDS011;40902;45.116;21.296;2024-03-02T04:58:46;8.05;;;4.57;;
55007;SDS011;40902;45.116;21.296;2024-03-02T05:01:21;10.48;;;5.07;;
55007;SDS011;40902;45.116;21.296;2024-03-02T05:03:49;7.07;;;4.45;;
55007;SDS011;40902;45.116;21.296;2024-03-02T05:06:15;9.70;;;4.22;;
55007;SDS011;40902;45.116;21.296;2024-03-02T05:08:45;7.53;;;4.85;;
55007;SDS011;40902;45.116;21.296;2024-03-02T05:11:18;8.95;;;5.25;;
55007;SDS011;40902;45.116;21.296;2024-03-02T05:13:59;9.20;;;5.15;;
55007;SDS011;40902;45.116;21.296;2024-03-02T05:16:25;7.28;;;4.63;;
55007;SDS011;40902;45.116;21.296;2024-03-02T05:18:58;9.18;;;5.13;;
55007;SDS011;40902;45.116;21.296;2024-03-02T05:21:29;12.00;;;5.90;;
55007;SDS011;40902;45.116;21.296;2024-03-02T05:24:03;9.55;;;5.13;;
55007;SDS011;40902;45.116;21.296;2024-03-02T05:26:29;7.72;;;4.85;;
55007;SDS011;40902;45.116;21.296;2024-03-02T05:28:55;6.65;;;4.13;;
55007;SDS011;40902;45.116;21.296;2024-03-02T05:31:24;7.50;;;4.50;;
55007;SDS011;40902;45.116;21.296;2024-03-02T05:33:53;8.43;;;4.75;;
55007;SDS011;40902;45.116;21.296;2024-03-02T05:36:19;8.68;;;4.85;;
55007;SDS011;40902;45.116;21.296;2024-03-02T05:39:11;10.07;;;5.28;;
55007;SDS011;40902;45.116;21.296;2024-03-02T05:41:40;7.88;;;5.00;;
55007;SDS011;40902;45.116;21.296;2024-03-02T05:44:14;10.70;;;5.10;;
55007;SDS011;40902;45.116;21.296;2024-03-02T05:46:51;10.80;;;4.95;;
55007;SDS011;40902;45.116;21.296;2024-03-02T05:49:23;12.07;;;5.72;;
55007;SDS011;40902;45.116;21.296;2024-03-02T05:52:00;9.82;;;5.63;;
55007;SDS011;40902;45.116;21.296;2024-03-02T05:54:29;8.02;;;4.68;;
55007;SDS011;40902;45.116;21.296;2024-03-02T05:56:59;9.80;;;5.07;;
55007;SDS011;40902;45.116;21.296;2024-03-02T05:59:48;8.23;;;4.53;;
55007;SDS011;40902;45.116;21.296;2024-03-02T06:02:35;9.25;;;5.47;;
55007;SDS011;40902;45.116;21.296;2024-03-02T06:05:02;11.73;;;5.10;;
55007;SDS011;40902;45.116;21.296;2024-03-02T06:07:43;7.85;;;5.00;;
55007;SDS011;40902;45.116;21.296;2024-03-02T06:13:17;9.77;;;4.70;;
55007;SDS011;40902;45.116;21.296;2024-03-02T06:15:42;9.85;;;4.93;;
55007;SDS011;40902;45.116;21.296;2024-03-02T06:20:49;7.57;;;4.63;;
55007;SDS011;40902;45.116;21.296;2024-03-02T06:23:22;8.07;;;4.38;;
55007;SDS011;40902;45.116;21.296;2024-03-02T06:25:53;6.65;;;4.63;;
55007;SDS011;40902;45.116;21.296;2024-03-02T06:28:24;8.30;;;4.80;;
55007;SDS011;40902;45.116;21.296;2024-03-02T06:31:05;10.68;;;6.28;;
55007;SDS011;40902;45.116;21.296;2024-03-02T06:33:36;10.77;;;6.40;;
55007;SDS011;40902;45.116;21.296;2024-03-02T06:36:09;10.93;;;6.10;;
55007;SDS011;40902;45.116;21.296;2024-03-02T06:38:39;8.48;;;5.05;;
55007;SDS011;40902;45.116;21.296;2024-03-02T06:41:11;8.48;;;5.22;;
55007;SDS011;40902;45.116;21.296;2024-03-02T06:43:42;11.20;;;5.20;;
55007;SDS011;40902;45.116;21.296;2024-03-02T06:46:33;8.20;;;5.53;;
55007;SDS011;40902;45.116;21.296;2024-03-02T06:49:01;9.00;;;5.90;;
55007;SDS011;40902;45.116;21.296;2024-03-02T06:51:41;7.95;;;5.15;;
55007;SDS011;40902;45.116;21.296;2024-03-02T06:54:12;6.18;;;4.63;;
55007;SDS011;40902;45.116;21.296;2024-03-02T06:56:43;6.70;;;4.43;;
55007;SDS011;40902;45.116;21.296;2024-03-02T06:59:09;6.97;;;4.00;;
55007;SDS011;40902;45.116;21.296;2024-03-02T07:01:35;6.55;;;4.50;;
55007;SDS011;40902;45.116;21.296;2024-03-02T07:04:12;9.60;;;6.85;;
55007;SDS011;40902;45.116;21.296;2024-03-02T07:06:58;6.95;;;4.85;;
55007;SDS011;40902;45.116;21.296;2024-03-02T07:09:27;11.85;;;7.47;;
55007;SDS011;40902;45.116;21.296;2024-03-02T07:12:01;8.43;;;4.90;;
55007;SDS011;40902;45.116;21.296;2024-03-02T07:14:43;12.15;;;4.97;;
55007;SDS011;40902;45.116;21.296;2024-03-02T07:17:27;10.30;;;4.65;;
55007;SDS011;40902;45.116;21.296;2024-03-02T07:19:55;7.40;;;4.78;;
55007;SDS011;40902;45.116;21.296;2024-03-02T07:22:42;7.07;;;4.68;;
55007;SDS011;40902;45.116;21.296;2024-03-02T07:25:09;8.00;;;4.82;;
55007;SDS011;40902;45.116;21.296;2024-03-02T07:27:37;9.20;;;5.25;;
55007;SDS011;40902;45.116;21.296;2024-03-02T07:30:06;9.48;;;5.15;;
55007;SDS011;40902;45.116;21.296;2024-03-02T07:32:42;8.35;;;5.25;;
55007;SDS011;40902;45.116;21.296;2024-03-02T07:35:15;7.90;;;5.68;;
55007;SDS011;40902;45.116;21.296;2024-03-02T07:37:46;9.73;;;5.28;;
55007;SDS011;40902;45.116;21.296;2024-03-02T07:40:21;6.93;;;4.68;;
55007;SDS011;40902;45.116;21.296;2024-03-02T07:42:47;7.35;;;4.28;;
55007;SDS011;40902;45.116;21.296;2024-03-02T07:45:25;6.53;;;4.35;;
55007;SDS011;40902;45.116;21.296;2024-03-02T07:47:56;7.60;;;4.45;;
55007;SDS011;40902;45.116;21.296;2024-03-02T07:50:27;8.88;;;5.18;;
55007;SDS011;40902;45.116;21.296;2024-03-02T07:52:53;7.00;;;5.15;;
55007;SDS011;40902;45.116;21.296;2024-03-02T07:55:21;7.03;;;4.63;;
55007;SDS011;40902;45.116;21.296;2024-03-02T07:58:01;7.78;;;5.32;;
55007;SDS011;40902;45.116;21.296;2024-03-02T08:00:29;8.50;;;4.50;;
55007;SDS011;40902;45.116;21.296;2024-03-02T08:03:11;8.05;;;4.60;;
55007;SDS011;40902;45.116;21.296;2024-03-02T08:05:49;7.60;;;4.97;;
55007;SDS011;40902;45.116;21.296;2024-03-02T08:08:17;5.43;;;3.75;;
55007;SDS011;40902;45.116;21.296;2024-03-02T08:10:50;6.28;;;3.83;;
55007;SDS011;40902;45.116;21.296;2024-03-02T08:13:16;6.38;;;3.70;;
55007;SDS011;40902;45.116;21.296;2024-03-02T08:16:07;6.40;;;3.88;;
55007;SDS011;40902;45.116;21.296;2024-03-02T08:18:50;8.10;;;3.78;;
55007;SDS011;40902;45.116;21.296;2024-03-02T08:21:25;5.13;;;3.38;;
55007;SDS011;40902;45.116;21.296;2024-03-02T08:24:02;6.43;;;4.45;;
55007;SDS011;40902;45.116;21.296;2024-03-02T08:26:28;7.15;;;3.90;;
55007;SDS011;40902;45.116;21.296;2024-03-02T08:28:54;7.75;;;3.85;;
55007;SDS011;40902;45.116;21.296;2024-03-02T08:31:20;8.10;;;4.25;;
55007;SDS011;40902;45.116;21.296;2024-03-02T08:33:49;7.55;;;3.70;;
55007;SDS011;40902;45.116;21.296;2024-03-02T08:36:14;5.97;;;3.42;;
55007;SDS011;40902;45.116;21.296;2024-03-02T08:38:41;6.25;;;3.80;;
55007;SDS011;40902;45.116;21.296;2024-03-02T08:41:07;7.93;;;3.63;;
55007;SDS011;40902;45.116;21.296;2024-03-02T08:43:33;7.45;;;3.35;;
55007;SDS011;40902;45.116;21.296;2024-03-02T08:45:59;6.93;;;3.67;;
55007;SDS011;40902;45.116;21.296;2024-03-02T08:48:25;5.93;;;3.95;;
55007;SDS011;40902;45.116;21.296;2024-03-02T08:50:50;5.75;;;3.88;;
55007;SDS011;40902;45.116;21.296;2024-03-02T08:53:16;6.80;;;3.58;;
55007;SDS011;40902;45.116;21.296;2024-03-02T08:55:44;5.18;;;3.40;;
55007;SDS011;40902;45.116;21.296;2024-03-02T08:58:13;7.45;;;3.45;;
55007;SDS011;40902;45.116;21.296;2024-03-02T09:00:38;6.88;;;3.90;;
55007;SDS011;40902;45.116;21.296;2024-03-02T09:03:04;7.70;;;3.78;;
55007;SDS011;40902;45.116;21.296;2024-03-02T09:05:30;7.15;;;4.30;;
55007;SDS011;40902;45.116;21.296;2024-03-02T09:07:59;6.55;;;3.38;;
55007;SDS011;40902;45.116;21.296;2024-03-02T09:10:28;8.52;;;3.60;;
55007;SDS011;40902;45.116;21.296;2024-03-02T09:12:54;8.05;;;3.72;;
55007;SDS011;40902;45.116;21.296;2024-03-02T09:15:20;8.38;;;3.80;;
55007;SDS011;40902;45.116;21.296;2024-03-02T09:17:46;6.78;;;3.53;;
55007;SDS011;40902;45.116;21.296;2024-03-02T09:20:12;6.03;;;3.33;;
55007;SDS011;40902;45.116;21.296;2024-03-02T09:22:39;5.07;;;3.42;;
55007;SDS011;40902;45.116;21.296;2024-03-02T09:25:04;6.72;;;3.67;;
55007;SDS011;40902;45.116;21.296;2024-03-02T09:27:35;7.85;;;3.55;;
55007;SDS011;40902;45.116;21.296;2024-03-02T09:30:03;7.05;;;3.97;;
55007;SDS011;40902;45.116;21.296;2024-03-02T09:32:35;6.25;;;3.58;;
55007;SDS011;40902;45.116;21.296;2024-03-02T09:35:01;6.63;;;3.95;;
55007;SDS011;40902;45.116;21.296;2024-03-02T09:37:27;4.82;;;3.17;;
55007;SDS011;40902;45.116;21.296;2024-03-02T09:39:54;5.47;;;3.58;;
55007;SDS011;40902;45.116;21.296;2024-03-02T09:42:20;5.93;;;3.47;;
55007;SDS011;40902;45.116;21.296;2024-03-02T09:44:46;6.22;;;3.85;;
55007;SDS011;40902;45.116;21.296;2024-03-02T09:47:13;7.10;;;3.63;;
55007;SDS011;40902;45.116;21.296;2024-03-02T09:49:38;5.47;;;3.20;;
55007;SDS011;40902;45.116;21.296;2024-03-02T09:52:05;5.90;;;3.58;;
55007;SDS011;40902;45.116;21.296;2024-03-02T09:54:32;4.68;;;3.17;;
55007;SDS011;40902;45.116;21.296;2024-03-02T09:56:57;5.43;;;3.58;;
55007;SDS011;40902;45.116;21.296;2024-03-02T09:59:24;5.75;;;3.40;;
55007;SDS011;40902;45.116;21.296;2024-03-02T10:01:59;5.90;;;3.95;;
55007;SDS011;40902;45.116;21.296;2024-03-02T10:04:26;6.95;;;4.20;;
55007;SDS011;40902;45.116;21.296;2024-03-02T10:09:40;5.65;;;3.92;;
55007;SDS011;40902;45.116;21.296;2024-03-02T10:12:11;5.63;;;3.80;;
55007;SDS011;40902;45.116;21.296;2024-03-02T10:14:38;6.57;;;4.35;;
55007;SDS011;40902;45.116;21.296;2024-03-02T10:17:08;6.03;;;4.28;;
55007;SDS011;40902;45.116;21.296;2024-03-02T10:19:35;6.57;;;4.43;;
55007;SDS011;40902;45.116;21.296;2024-03-02T10:22:02;5.80;;;3.65;;
55007;SDS011;40902;45.116;21.296;2024-03-02T10:24:38;4.88;;;3.10;;
55007;SDS011;40902;45.116;21.296;2024-03-02T10:27:15;6.00;;;3.28;;
55007;SDS011;40902;45.116;21.296;2024-03-02T10:29:42;4.97;;;3.33;;
55007;SDS011;40902;45.116;21.296;2024-03-02T10:32:11;5.63;;;3.92;;
55007;SDS011;40902;45.116;21.296;2024-03-02T10:34:39;6.22;;;3.25;;
55007;SDS011;40902;45.116;21.296;2024-03-02T10:37:06;4.75;;;3.28;;
55007;SDS011;40902;45.116;21.296;2024-03-02T10:39:34;4.97;;;3.33;;
55007;SDS011;40902;45.116;21.296;2024-03-02T10:42:05;3.90;;;2.92;;
55007;SDS011;40902;45.116;21.296;2024-03-02T10:44:32;5.80;;;3.28;;
55007;SDS011;40902;45.116;21.296;2024-03-02T10:47:02;5.05;;;3.28;;
55007;SDS011;40902;45.116;21.296;2024-03-02T10:49:30;5.63;;;3.47;;
55007;SDS011;40902;45.116;21.296;2024-03-02T10:52:00;5.65;;;3.42;;
55007;SDS011;40902;45.116;21.296;2024-03-02T10:54:27;5.05;;;3.60;;
55007;SDS011;40902;45.116;21.296;2024-03-02T10:57:00;5.47;;;3.25;;
55007;SDS011;40902;45.116;21.296;2024-03-02T11:02:02;6.68;;;3.28;;
55007;SDS011;40902;45.116;21.296;2024-03-02T11:04:29;5.88;;;3.60;;
55007;SDS011;40902;45.116;21.296;2024-03-02T11:07:02;5.65;;;3.72;;
55007;SDS011;40902;45.116;21.296;2024-03-02T11:09:34;4.97;;;3.30;;
55007;SDS011;40902;45.116;21.296;2024-03-02T11:14:28;4.85;;;3.20;;
55007;SDS011;40902;45.116;21.296;2024-03-02T11:16:55;4.45;;;3.40;;
55007;SDS011;40902;45.116;21.296;2024-03-02T11:19:22;5.18;;;3.67;;
55007;SDS011;40902;45.116;21.296;2024-03-02T11:21:49;5.15;;;3.10;;
55007;SDS011;40902;45.116;21.296;2024-03-02T11:26:52;5.15;;;3.45;;
55007;SDS011;40902;45.116;21.296;2024-03-02T11:32:04;4.68;;;3.45;;
55007;SDS011;40902;45.116;21.296;2024-03-02T11:34:40;4.28;;;3.20;;
55007;SDS011;40902;45.116;21.296;2024-03-02T11:37:11;4.70;;;3.60;;
55007;SDS011;40902;45.116;21.296;2024-03-02T11:39:38;4.20;;;2.95;;
55007;SDS011;40902;45.116;21.296;2024-03-02T11:42:07;4.28;;;3.00;;
55007;SDS011;40902;45.116;21.296;2024-03-02T11:44:35;5.53;;;3.15;;
55007;SDS011;40902;45.116;21.296;2024-03-02T11:47:07;3.85;;;2.90;;
55007;SDS011;40902;45.116;21.296;2024-03-02T11:52:04;5.00;;;3.40;;
55007;SDS011;40902;45.116;21.296;2024-03-02T11:54:32;5.55;;;2.70;;
55007;SDS011;40902;45.116;21.296;2024-03-02T11:57:02;4.68;;;2.92;;
55007;SDS011;40902;45.116;21.296;2024-03-02T11:59:30;5.25;;;2.78;;
55007;SDS011;40902;45.116;21.296;2024-03-02T12:01:56;3.53;;;2.58;;
55007;SDS011;40902;45.116;21.296;2024-03-02T12:04:23;4.60;;;2.75;;
55007;SDS011;40902;45.116;21.296;2024-03-02T12:06:55;4.65;;;2.28;;
55007;SDS011;40902;45.116;21.296;2024-03-02T12:09:29;4.60;;;2.40;;
55007;SDS011;40902;45.116;21.296;2024-03-02T12:12:01;3.95;;;2.60;;
55007;SDS011;40902;45.116;21.296;2024-03-02T12:14:29;3.25;;;2.10;;
55007;SDS011;40902;45.116;21.296;2024-03-02T12:17:00;3.45;;;2.30;;
55007;SDS011;40902;45.116;21.296;2024-03-02T12:19:26;3.63;;;2.10;;
55007;SDS011;40902;45.116;21.296;2024-03-02T12:21:54;4.70;;;2.90;;
55007;SDS011;40902;45.116;21.296;2024-03-02T12:24:26;4.25;;;2.60;;
55007;SDS011;40902;45.116;21.296;2024-03-02T12:26:53;3.85;;;2.40;;
55007;SDS011;40902;45.116;21.296;2024-03-02T12:29:19;4.93;;;2.78;;
55007;SDS011;40902;45.116;21.296;2024-03-02T12:31:49;3.72;;;2.47;;
55007;SDS011;40902;45.116;21.296;2024-03-02T12:34:16;3.50;;;2.30;;
55007;SDS011;40902;45.116;21.296;2024-03-02T12:36:43;3.53;;;2.33;;
55007;SDS011;40902;45.116;21.296;2024-03-02T12:39:14;3.55;;;2.45;;
55007;SDS011;40902;45.116;21.296;2024-03-02T12:41:41;4.90;;;3.00;;
55007;SDS011;40902;45.116;21.296;2024-03-02T12:44:07;4.07;;;2.35;;
55007;SDS011;40902;45.116;21.296;2024-03-02T12:46:33;4.43;;;2.38;;
55007;SDS011;40902;45.116;21.296;2024-03-02T12:49:11;2.97;;;2.10;;
55007;SDS011;40902;45.116;21.296;2024-03-02T12:51:38;3.63;;;2.30;;
55007;SDS011;40902;45.116;21.296;2024-03-02T12:54:11;3.88;;;2.60;;
55007;SDS011;40902;45.116;21.296;2024-03-02T12:56:37;4.40;;;2.47;;
55007;SDS011;40902;45.116;21.296;2024-03-02T12:59:03;3.85;;;2.50;;
55007;SDS011;40902;45.116;21.296;2024-03-02T13:01:30;8.60;;;5.65;;
55007;SDS011;40902;45.116;21.296;2024-03-02T13:07:18;12.23;;;6.18;;
55007;SDS011;40902;45.116;21.296;2024-03-02T13:09:45;5.90;;;4.00;;
55007;SDS011;40902;45.116;21.296;2024-03-02T13:12:11;9.88;;;6.70;;
55007;SDS011;40902;45.116;21.296;2024-03-02T13:14:37;7.90;;;5.70;;
55007;SDS011;40902;45.116;21.296;2024-03-02T13:17:03;8.70;;;3.85;;
55007;SDS011;40902;45.116;21.296;2024-03-02T13:19:31;4.07;;;3.10;;
55007;SDS011;40902;45.116;21.296;2024-03-02T13:21:57;5.63;;;2.70;;
55007;SDS011;40902;45.116;21.296;2024-03-02T13:24:23;6.85;;;3.17;;
55007;SDS011;40902;45.116;21.296;2024-03-02T13:26:54;5.43;;;2.70;;
55007;SDS011;40902;45.116;21.296;2024-03-02T13:29:22;4.95;;;2.97;;
55007;SDS011;40902;45.116;21.296;2024-03-02T13:31:48;4.68;;;3.00;;
55007;SDS011;40902;45.116;21.296;2024-03-02T13:34:18;5.32;;;3.00;;
55007;SDS011;40902;45.116;21.296;2024-03-02T13:36:44;5.15;;;3.22;;
55007;SDS011;40902;45.116;21.296;2024-03-02T13:39:10;6.65;;;3.97;;
55007;SDS011;40902;45.116;21.296;2024-03-02T13:41:36;5.40;;;3.28;;
55007;SDS011;40902;45.116;21.296;2024-03-02T13:44:02;5.57;;;2.70;;
55007;SDS011;40902;45.116;21.296;2024-03-02T13:46:28;3.75;;;2.50;;
55007;SDS011;40902;45.116;21.296;2024-03-02T13:48:54;3.50;;;2.47;;
55007;SDS011;40902;45.116;21.296;2024-03-02T13:51:21;4.07;;;2.67;;
55007;SDS011;40902;45.116;21.296;2024-03-02T13:53:46;6.88;;;2.40;;
55007;SDS011;40902;45.116;21.296;2024-03-02T13:56:12;3.33;;;2.30;;
55007;SDS011;40902;45.116;21.296;2024-03-02T13:58:38;4.03;;;2.42;;
55007;SDS011;40902;45.116;21.296;2024-03-02T14:01:04;5.82;;;2.85;;
55007;SDS011;40902;45.116;21.296;2024-03-02T14:03:30;4.13;;;2.60;;
55007;SDS011;40902;45.116;21.296;2024-03-02T14:05:56;4.97;;;2.97;;
55007;SDS011;40902;45.116;21.296;2024-03-02T14:08:22;4.95;;;3.15;;
55007;SDS011;40902;45.116;21.296;2024-03-02T14:10:48;4.68;;;2.47;;
55007;SDS011;40902;45.116;21.296;2024-03-02T14:13:14;5.68;;;3.95;;
55007;SDS011;40902;45.116;21.296;2024-03-02T14:15:41;6.25;;;4.78;;
55007;SDS011;40902;45.116;21.296;2024-03-02T14:18:07;7.43;;;5.20;;
55007;SDS011;40902;45.116;21.296;2024-03-02T14:20:36;6.75;;;4.43;;
55007;SDS011;40902;45.116;21.296;2024-03-02T14:23:02;10.57;;;5.32;;
55007;SDS011;40902;45.116;21.296;2024-03-02T14:25:29;5.70;;;3.78;;
55007;SDS011;40902;45.116;21.296;2024-03-02T14:27:59;5.05;;;3.47;;
55007;SDS011;40902;45.116;21.296;2024-03-02T14:30:25;4.95;;;3.35;;
55007;SDS011;40902;45.116;21.296;2024-03-02T14:32:50;5.88;;;3.40;;
55007;SDS011;40902;45.116;21.296;2024-03-02T14:35:16;5.45;;;3.00;;
55007;SDS011;40902;45.116;21.296;2024-03-02T14:37:43;8.10;;;6.55;;
55007;SDS011;40902;45.116;21.296;2024-03-02T14:40:10;8.13;;;4.95;;
55007;SDS011;40902;45.116;21.296;2024-03-02T14:42:37;4.88;;;3.40;;
55007;SDS011;40902;45.116;21.296;2024-03-02T14:45:03;6.55;;;3.08;;
55007;SDS011;40902;45.116;21.296;2024-03-02T14:47:31;6.43;;;4.32;;
55007;SDS011;40902;45.116;21.296;2024-03-02T14:49:58;8.60;;;5.18;;
55007;SDS011;40902;45.116;21.296;2024-03-02T14:52:25;8.48;;;5.93;;
55007;SDS011;40902;45.116;21.296;2024-03-02T14:54:51;6.80;;;4.03;;
55007;SDS011;40902;45.116;21.296;2024-03-02T14:57:17;6.35;;;4.50;;
55007;SDS011;40902;45.116;21.296;2024-03-02T14:59:44;10.98;;;7.50;;
55007;SDS011;40902;45.116;21.296;2024-03-02T15:02:25;7.88;;;5.10;;
55007;SDS011;40902;45.116;21.296;2024-03-02T15:04:53;8.43;;;5.70;;
55007;SDS011;40902;45.116;21.296;2024-03-02T15:07:19;8.63;;;5.22;;
55007;SDS011;40902;45.116;21.296;2024-03-02T15:09:46;7.15;;;5.07;;